Time;durP1;ratioP1;P1;durP2;ratioP2;P2;SDS_P1;SDS_P2;PMS_P1;PMS_P2;Temp;Humidity;BMP_temperature;BMP_pressure;BME280_temperature;BME280_humidity;BME280_pressure;Samples;Min_cycle;Max_cycle;Signal;HPM_P1;HPM_P2
2023/12/29 00:00:05;;;;;;;9.25;2.60;;;11.40;99.90;;;;;;5116768;27;20225;-59
2023/12/29 00:02:31;;;;;;;8.77;2.28;;;11.30;99.90;;;;;;5116769;28;20614;-58
2023/12/29 00:04:57;;;;;;;11.70;3.08;;;11.30;99.90;;;;;;5116620;28;20222;-58
2023/12/29 00:07:22;;;;;;;9.98;2.67;;;11.30;99.90;;;;;;5116696;28;20184;-58
2023/12/29 00:09:48;;;;;;;9.45;2.60;;;11.30;99.90;;;;;;5116657;28;20222;-59
2023/12/29 00:12:14;;;;;;;10.07;2.83;;;11.10;99.90;;;;;;5116654;28;20306;-58
2023/12/29 00:14:40;;;;;;;12.68;2.80;;;11.10;99.90;;;;;;5116611;28;20178;-58
2023/12/29 00:17:06;;;;;;;9.80;2.88;;;11.00;99.90;;;;;;5116477;28;20676;-59
2023/12/29 00:19:31;;;;;;;9.95;2.90;;;11.00;99.90;;;;;;5116453;28;20234;-58
2023/12/29 00:21:59;;;;;;;7.53;2.45;;;11.00;99.90;;;;;;5116216;28;20235;-58
2023/12/29 00:24:25;;;;;;;10.00;2.58;;;11.00;99.90;;;;;;5116229;28;20212;-58
2023/12/29 00:26:51;;;;;;;12.93;3.08;;;10.90;99.90;;;;;;5116065;28;20534;-59
2023/12/29 00:29:17;;;;;;;10.02;2.53;;;10.80;99.90;;;;;;5116592;28;20166;-58
2023/12/29 00:31:43;;;;;;;9.73;2.55;;;10.90;99.90;;;;;;5116170;28;20530;-58
2023/12/29 00:34:08;;;;;;;8.38;2.88;;;10.90;99.90;;;;;;5115905;28;20178;-59
2023/12/29 00:36:34;;;;;;;10.88;2.88;;;10.90;99.90;;;;;;5116094;28;20218;-58
2023/12/29 00:39:00;;;;;;;10.38;2.63;;;10.90;99.90;;;;;;5116036;28;20173;-58
2023/12/29 00:41:25;;;;;;;11.65;3.00;;;10.90;99.90;;;;;;5116047;28;20178;-59
2023/12/29 00:43:51;;;;;;;7.70;2.40;;;10.90;99.90;;;;;;5115962;28;20205;-59
2023/12/29 00:46:17;;;;;;;10.65;2.60;;;10.90;99.90;;;;;;5115964;28;20177;-59
2023/12/29 00:48:42;;;;;;;9.38;3.10;;;10.90;99.90;;;;;;5115958;28;20177;-58
2023/12/29 00:51:08;;;;;;;11.32;2.35;;;10.90;99.90;;;;;;5115846;28;20682;-58
2023/12/29 00:53:37;;;;;;;7.88;2.22;;;10.90;99.90;;;;;;5115526;28;20177;-59
2023/12/29 00:56:03;;;;;;;7.75;2.47;;;10.90;99.90;;;;;;5115722;28;20272;-59
2023/12/29 00:58:28;;;;;;;7.70;2.55;;;10.90;99.90;;;;;;5115272;28;20264;-59
2023/12/29 01:00:54;;;;;;;8.98;2.20;;;10.80;99.90;;;;;;5115575;28;20182;-58
2023/12/29 01:03:20;;;;;;;9.13;2.78;;;10.80;99.90;;;;;;5115541;28;20525;-58
2023/12/29 01:05:46;;;;;;;11.00;2.58;;;10.70;99.90;;;;;;5115475;28;20180;-58
2023/12/29 01:08:12;;;;;;;9.07;2.55;;;10.80;99.90;;;;;;5115246;28;20259;-59
2023/12/29 01:10:37;;;;;;;7.85;2.10;;;10.90;99.90;;;;;;5115419;28;20174;-58
2023/12/29 01:13:03;;;;;;;10.25;2.55;;;10.80;99.90;;;;;;5115389;28;20182;-59
2023/12/29 01:15:29;;;;;;;8.15;2.22;;;10.90;99.90;;;;;;5115430;28;20177;-58
2023/12/29 01:17:55;;;;;;;6.97;1.90;;;10.90;99.90;;;;;;5115311;28;20173;-59
2023/12/29 01:20:20;;;;;;;5.53;1.83;;;10.90;99.90;;;;;;5115250;28;20623;-59
2023/12/29 01:22:46;;;;;;;8.35;2.25;;;10.90;99.90;;;;;;5115188;28;20229;-59
2023/12/29 01:25:12;;;;;;;6.53;2.45;;;10.90;99.90;;;;;;5115117;28;20216;-58
2023/12/29 01:27:37;;;;;;;9.02;2.30;;;10.90;99.90;;;;;;5115191;28;20184;-59
2023/12/29 01:30:03;;;;;;;5.40;1.95;;;10.90;99.90;;;;;;5115136;28;20214;-58
2023/12/29 01:32:29;;;;;;;8.07;2.10;;;11.00;99.90;;;;;;5114935;28;20634;-59
2023/12/29 01:34:55;;;;;;;9.27;2.20;;;10.80;99.90;;;;;;5114994;28;20185;-58
2023/12/29 01:37:20;;;;;;;8.50;2.50;;;10.90;99.90;;;;;;5114975;28;20177;-59
2023/12/29 01:39:46;;;;;;;9.27;2.42;;;10.90;99.90;;;;;;5114867;28;20173;-58
2023/12/29 01:42:12;;;;;;;7.78;2.40;;;10.80;99.90;;;;;;5114860;28;20177;-59
2023/12/29 01:44:37;;;;;;;10.40;2.65;;;10.80;99.90;;;;;;5114494;28;20246;-58
2023/12/29 01:47:10;;;;;;;8.27;2.30;;;10.80;99.90;;;;;;5114787;28;20165;-59
2023/12/29 01:49:36;;;;;;;5.70;2.10;;;10.80;99.90;;;;;;5114807;28;20173;-59
2023/12/29 01:52:03;;;;;;;8.63;2.75;;;10.90;99.90;;;;;;5114685;28;20272;-58
2023/12/29 01:54:34;;;;;;;8.38;2.58;;;10.80;99.90;;;;;;5114589;28;20234;-59
2023/12/29 01:57:02;;;;;;;6.78;2.10;;;10.90;99.90;;;;;;5114648;28;20577;-59
2023/12/29 01:59:28;;;;;;;8.20;2.53;;;10.90;99.90;;;;;;5114485;28;20226;-59
2023/12/29 02:01:58;;;;;;;8.95;2.30;;;10.90;99.90;;;;;;5114571;28;20176;-60
2023/12/29 02:04:25;;;;;;;6.22;2.10;;;10.90;99.90;;;;;;5114341;28;20680;-59
2023/12/29 02:06:51;;;;;;;11.57;2.80;;;10.90;99.90;;;;;;5114448;28;20182;-59
2023/12/29 02:09:20;;;;;;;10.10;2.28;;;11.00;99.90;;;;;;5114412;28;20166;-59
2023/12/29 02:11:46;;;;;;;10.15;2.50;;;11.00;99.90;;;;;;5113612;28;20173;-59
2023/12/29 02:14:13;;;;;;;7.60;2.47;;;11.00;99.90;;;;;;5113986;28;20575;-59
2023/12/29 02:17:06;;;;;;;10.95;2.85;;;10.90;99.90;;;;;;5114269;28;20173;-60
2023/12/29 02:19:46;;;;;;;9.73;2.60;;;11.00;99.90;;;;;;5114295;28;20230;-59
2023/12/29 02:22:12;;;;;;;6.45;2.10;;;11.00;99.90;;;;;;5113984;28;20669;-59
2023/12/29 02:24:39;;;;;;;13.57;2.72;;;11.10;99.90;;;;;;5113876;28;20741;-59
2023/12/29 02:27:16;;;;;;;10.88;2.70;;;11.00;99.90;;;;;;5114122;28;20260;-59
2023/12/29 02:29:48;;;;;;;7.72;2.42;;;10.90;99.90;;;;;;5113888;28;20191;-59
2023/12/29 02:32:18;;;;;;;8.80;2.58;;;10.80;99.90;;;;;;5113871;28;20190;-59
2023/12/29 02:34:46;;;;;;;8.70;2.40;;;10.90;99.90;;;;;;5114302;28;20234;-59
2023/12/29 02:37:12;;;;;;;6.72;2.22;;;10.80;99.90;;;;;;5114090;28;20219;-58
2023/12/29 02:39:38;;;;;;;7.28;2.40;;;10.80;99.90;;;;;;5113979;28;20174;-58
2023/12/29 02:42:04;;;;;;;7.03;2.40;;;10.80;99.90;;;;;;5113982;28;20249;-58
2023/12/29 02:44:30;;;;;;;9.27;2.25;;;10.80;99.90;;;;;;5113781;28;20212;-59
2023/12/29 02:46:56;;;;;;;5.40;1.80;;;10.70;99.90;;;;;;5113916;28;20264;-59
2023/12/29 02:49:21;;;;;;;9.30;2.25;;;10.70;99.90;;;;;;5113884;28;20177;-59
2023/12/29 02:51:49;;;;;;;5.53;2.08;;;10.60;99.90;;;;;;5113851;28;20173;-59
2023/12/29 02:54:15;;;;;;;9.27;2.47;;;10.50;99.90;;;;;;5113770;28;20187;-59
2023/12/29 02:56:41;;;;;;;8.32;2.40;;;10.70;99.90;;;;;;5113670;28;20177;-59
2023/12/29 02:59:06;;;;;;;8.07;2.42;;;10.70;99.90;;;;;;5113847;28;20523;-59
2023/12/29 03:01:32;;;;;;;10.13;2.58;;;10.80;99.90;;;;;;5113781;28;20702;-59
2023/12/29 03:03:58;;;;;;;6.60;2.15;;;10.70;99.90;;;;;;5113392;28;20292;-59
2023/12/29 03:06:24;;;;;;;7.38;2.10;;;10.70;99.90;;;;;;5113785;28;20264;-58
2023/12/29 03:08:50;;;;;;;10.52;2.70;;;10.70;99.90;;;;;;5113778;28;20201;-59
2023/12/29 03:11:16;;;;;;;8.80;2.58;;;10.70;99.90;;;;;;5113710;28;20223;-59
2023/12/29 03:13:41;;;;;;;7.47;2.60;;;10.70;99.90;;;;;;5114015;28;20173;-61
2023/12/29 03:16:07;;;;;;;7.68;1.90;;;10.70;99.90;;;;;;5113756;28;20209;-59
2023/12/29 03:18:33;;;;;;;7.57;2.30;;;10.60;99.90;;;;;;5113268;28;20569;-58
2023/12/29 03:20:58;;;;;;;9.48;2.75;;;10.60;99.90;;;;;;5113577;28;20204;-59
2023/12/29 03:23:24;;;;;;;7.65;2.70;;;10.70;99.90;;;;;;5116780;28;20221;-59
2023/12/29 03:25:49;;;;;;;8.68;2.35;;;10.60;99.90;;;;;;5117535;28;20594;-59
2023/12/29 03:28:15;;;;;;;10.68;2.35;;;10.60;99.90;;;;;;5117237;28;20256;-59
2023/12/29 03:30:41;;;;;;;7.07;2.33;;;10.70;99.90;;;;;;5117492;28;20253;-59
2023/12/29 03:33:06;;;;;;;9.93;2.70;;;10.70;99.90;;;;;;5117404;28;20268;-59
2023/12/29 03:35:32;;;;;;;8.57;2.25;;;10.60;99.90;;;;;;5117114;28;20587;-59
2023/12/29 03:37:58;;;;;;;11.85;2.25;;;10.60;99.90;;;;;;5117203;28;20231;-59
2023/12/29 03:40:23;;;;;;;8.77;2.97;;;10.50;99.90;;;;;;5117265;28;20180;-59
2023/12/29 03:42:49;;;;;;;10.23;2.55;;;10.60;99.90;;;;;;5116933;28;20649;-59
2023/12/29 03:45:14;;;;;;;10.32;2.78;;;10.70;99.90;;;;;;5116842;28;20189;-59
2023/12/29 03:47:40;;;;;;;12.88;2.72;;;10.60;99.90;;;;;;5117145;28;20178;-59
2023/12/29 03:50:06;;;;;;;9.50;3.00;;;10.50;99.90;;;;;;5116828;28;20177;-59
2023/12/29 03:52:32;;;;;;;9.88;2.47;;;10.40;99.90;;;;;;5116988;28;20297;-58
2023/12/29 03:54:57;;;;;;;8.43;2.35;;;10.50;99.90;;;;;;5117288;28;20177;-58
2023/12/29 03:57:23;;;;;;;10.43;2.33;;;10.40;99.90;;;;;;5116940;28;20517;-58
2023/12/29 03:59:49;;;;;;;9.63;2.42;;;10.40;99.90;;;;;;5116942;28;20177;-59
2023/12/29 04:02:14;;;;;;;8.77;2.72;;;10.30;99.90;;;;;;5116846;28;20172;-59
2023/12/29 04:04:41;;;;;;;11.23;2.75;;;10.40;99.90;;;;;;5116717;28;20212;-59
2023/12/29 04:07:06;;;;;;;7.30;2.25;;;10.50;99.90;;;;;;5116733;28;20177;-59
2023/12/29 04:09:32;;;;;;;9.90;2.60;;;10.50;99.90;;;;;;5116729;28;20263;-59
2023/12/29 04:11:58;;;;;;;8.48;2.63;;;10.50;99.90;;;;;;5116636;28;20226;-58
2023/12/29 04:14:23;;;;;;;12.13;3.05;;;10.40;99.90;;;;;;5116658;28;20177;-58
2023/12/29 04:16:49;;;;;;;10.07;2.78;;;10.50;99.90;;;;;;5116580;28;20499;-58
2023/12/29 04:19:14;;;;;;;6.75;2.50;;;10.40;99.90;;;;;;5116541;28;20195;-58
2023/12/29 04:21:40;;;;;;;8.43;2.45;;;10.40;99.90;;;;;;5116123;28;20237;-59
2023/12/29 04:24:06;;;;;;;8.43;2.70;;;10.30;99.90;;;;;;5116332;28;20642;-59
2023/12/29 04:26:38;;;;;;;10.80;2.35;;;10.20;99.90;;;;;;5116371;28;20177;-59
2023/12/29 04:29:03;;;;;;;10.65;2.50;;;10.30;99.90;;;;;;5116353;28;20208;-59
2023/12/29 04:31:29;;;;;;;8.48;2.38;;;10.30;99.90;;;;;;5116110;28;20204;-59
2023/12/29 04:33:55;;;;;;;8.07;2.22;;;10.30;99.90;;;;;;5115436;28;20177;-59
2023/12/29 04:36:20;;;;;;;8.30;2.40;;;10.30;99.90;;;;;;5116492;28;20191;-59
2023/12/29 04:38:46;;;;;;;9.63;2.75;;;10.30;99.90;;;;;;5116146;28;20170;-59
2023/12/29 04:41:13;;;;;;;9.27;2.30;;;10.30;99.90;;;;;;5116120;28;20176;-59
2023/12/29 04:43:38;;;;;;;8.70;2.58;;;10.30;99.90;;;;;;5115950;28;20229;-59
2023/12/29 04:46:04;;;;;;;7.97;2.08;;;10.30;99.90;;;;;;5115709;28;20177;-58
2023/12/29 04:48:29;;;;;;;9.57;2.63;;;10.30;99.90;;;;;;5115949;28;20177;-59
2023/12/29 04:50:55;;;;;;;10.05;2.30;;;10.40;99.90;;;;;;5115848;28;20173;-59
2023/12/29 04:53:21;;;;;;;9.85;2.40;;;10.40;99.90;;;;;;5115855;28;20192;-59
2023/12/29 04:55:46;;;;;;;11.48;2.42;;;10.50;99.90;;;;;;5115824;28;20185;-59
2023/12/29 04:58:12;;;;;;;8.45;2.60;;;10.50;99.90;;;;;;5115768;28;20197;-59
2023/12/29 05:00:37;;;;;;;7.78;2.38;;;10.60;99.90;;;;;;5115728;28;20180;-59
2023/12/29 05:03:03;;;;;;;11.25;2.85;;;10.60;99.90;;;;;;5115677;28;20176;-59
2023/12/29 05:05:29;;;;;;;10.30;2.63;;;10.60;99.90;;;;;;5115844;28;20201;-59
2023/12/29 05:07:54;;;;;;;7.50;2.45;;;10.70;99.90;;;;;;5115555;28;20177;-59
2023/12/29 05:10:20;;;;;;;7.03;2.65;;;10.60;99.90;;;;;;5115539;28;20176;-59
2023/12/29 05:12:46;;;;;;;6.50;2.63;;;10.60;99.90;;;;;;5115432;28;20180;-59
2023/12/29 05:15:11;;;;;;;8.63;2.53;;;10.60;99.90;;;;;;5115175;28;20626;-59
2023/12/29 05:17:39;;;;;;;10.80;2.70;;;10.60;99.90;;;;;;5115384;28;20492;-59
2023/12/29 05:20:07;;;;;;;7.30;2.20;;;10.60;99.90;;;;;;5115279;28;20264;-59
2023/12/29 05:22:32;;;;;;;8.93;2.28;;;10.70;99.90;;;;;;5115146;28;20263;-59
2023/12/29 05:25:00;;;;;;;4.43;1.90;;;10.70;99.90;;;;;;5115249;28;20217;-58
2023/12/29 05:27:26;;;;;;;10.95;2.20;;;10.70;99.90;;;;;;5115150;28;20178;-59
2023/12/29 05:29:51;;;;;;;10.32;2.55;;;10.60;99.90;;;;;;5115116;28;20175;-59
2023/12/29 05:32:17;;;;;;;8.85;2.42;;;10.60;99.90;;;;;;5115222;28;20618;-59
2023/12/29 05:34:43;;;;;;;9.02;2.58;;;10.60;99.90;;;;;;5114453;28;20246;-59
2023/12/29 05:37:09;;;;;;;8.27;2.15;;;10.60;99.90;;;;;;5114975;28;20174;-59
2023/12/29 05:39:34;;;;;;;7.70;1.98;;;10.50;99.90;;;;;;5114969;28;20169;-59
2023/12/29 05:42:00;;;;;;;6.45;2.17;;;10.60;99.90;;;;;;5114941;28;20567;-59
2023/12/29 05:44:26;;;;;;;7.78;3.00;;;10.70;99.90;;;;;;5114800;28;20201;-59
2023/12/29 05:46:51;;;;;;;11.27;2.88;;;10.60;99.90;;;;;;5114526;28;20634;-59
2023/12/29 05:49:17;;;;;;;7.93;2.40;;;10.60;99.90;;;;;;5115039;28;20579;-58
2023/12/29 05:51:44;;;;;;;7.38;2.50;;;10.60;99.90;;;;;;5114705;28;20256;-59
2023/12/29 05:54:10;;;;;;;6.53;2.25;;;10.60;99.90;;;;;;5114669;28;20237;-58
2023/12/29 05:56:35;;;;;;;9.73;2.85;;;10.50;99.90;;;;;;5113464;28;20252;-58
2023/12/29 05:59:01;;;;;;;6.63;2.40;;;10.50;99.90;;;;;;5114647;28;20174;-59
2023/12/29 06:01:27;;;;;;;9.75;2.38;;;10.60;99.90;;;;;;5114826;28;20172;-59
2023/12/29 06:03:52;;;;;;;8.45;2.35;;;10.60;99.90;;;;;;5114408;28;20596;-59
2023/12/29 06:06:18;;;;;;;10.60;2.55;;;10.60;99.90;;;;;;5114146;28;20181;-58
2023/12/29 06:08:43;;;;;;;9.82;2.10;;;10.60;99.90;;;;;;5114443;28;20165;-59
2023/12/29 06:11:15;;;;;;;7.82;2.20;;;10.40;99.90;;;;;;5114369;28;20640;-59
2023/12/29 06:13:41;;;;;;;7.82;2.35;;;10.50;99.90;;;;;;5114069;28;20158;-59
2023/12/29 06:16:07;;;;;;;7.93;2.10;;;10.50;99.90;;;;;;5114020;28;20259;-58
2023/12/29 06:18:32;;;;;;;10.10;2.78;;;10.50;99.90;;;;;;5114312;28;20223;-59
2023/12/29 06:20:58;;;;;;;5.05;2.15;;;10.50;99.90;;;;;;5114207;28;20174;-58
2023/12/29 06:23:25;;;;;;;8.77;2.35;;;10.50;99.90;;;;;;5114313;28;20221;-58
2023/12/29 06:25:52;;;;;;;7.97;2.92;;;10.50;99.90;;;;;;5114066;28;20233;-59
2023/12/29 06:28:18;;;;;;;9.02;2.55;;;10.50;99.90;;;;;;5113950;28;20181;-59
2023/12/29 06:30:43;;;;;;;10.63;3.00;;;10.50;99.90;;;;;;5114149;28;20260;-59
2023/12/29 06:33:09;;;;;;;8.50;2.40;;;10.50;99.90;;;;;;5114078;28;20219;-59
2023/12/29 06:35:35;;;;;;;8.38;2.45;;;10.60;99.90;;;;;;5113853;28;20205;-58
2023/12/29 06:38:00;;;;;;;10.77;2.70;;;10.60;99.90;;;;;;5114032;28;20173;-58
2023/12/29 06:40:26;;;;;;;9.65;2.92;;;10.50;99.90;;;;;;5113979;28;20260;-59
2023/12/29 06:42:52;;;;;;;8.27;2.60;;;10.50;99.90;;;;;;5113892;28;20529;-59
2023/12/29 06:45:17;;;;;;;9.60;2.50;;;10.40;99.90;;;;;;5113580;28;20201;-59
2023/12/29 06:47:43;;;;;;;6.82;2.70;;;10.50;99.90;;;;;;5113539;28;20178;-59
2023/12/29 06:50:12;;;;;;;8.45;2.40;;;10.60;99.90;;;;;;5113310;28;20205;-58
2023/12/29 06:52:38;;;;;;;4.68;2.25;;;10.50;99.90;;;;;;5113092;28;20180;-59
2023/12/29 06:55:05;;;;;;;7.10;2.30;;;10.50;99.90;;;;;;5113138;28;20173;-59
2023/12/29 06:57:30;;;;;;;7.82;2.30;;;10.50;99.90;;;;;;5114794;28;20201;-60
2023/12/29 06:59:56;;;;;;;6.97;2.45;;;10.50;99.90;;;;;;5117310;28;20523;-59
2023/12/29 07:02:22;;;;;;;6.50;2.72;;;10.50;99.90;;;;;;5116972;28;20169;-59
2023/12/29 07:04:48;;;;;;;4.00;1.98;;;10.50;99.90;;;;;;5117120;28;20197;-59
2023/12/29 07:07:13;;;;;;;6.90;2.22;;;10.50;99.90;;;;;;5117052;28;20618;-59
2023/12/29 07:09:40;;;;;;;5.53;2.28;;;10.60;99.90;;;;;;5116813;28;20544;-60
2023/12/29 07:12:06;;;;;;;6.18;2.45;;;10.50;99.90;;;;;;5116388;28;20176;-59
2023/12/29 07:14:32;;;;;;;6.05;2.33;;;10.50;99.90;;;;;;5116363;28;20204;-59
2023/12/29 07:16:58;;;;;;;3.70;2.10;;;10.50;99.90;;;;;;5116743;28;20208;-59
2023/12/29 07:19:23;;;;;;;4.47;1.80;;;10.50;99.90;;;;;;5116569;28;20173;-59
2023/12/29 07:21:49;;;;;;;8.05;2.50;;;10.60;99.90;;;;;;5116036;28;20228;-59
2023/12/29 07:24:15;;;;;;;4.75;2.03;;;10.50;99.90;;;;;;5116004;28;20661;-59
2023/12/29 07:26:41;;;;;;;5.80;2.10;;;10.50;99.90;;;;;;5113552;28;20238;-60
2023/12/29 07:29:06;;;;;;;3.75;1.52;;;10.50;99.90;;;;;;5115207;28;20177;-59
2023/12/29 07:31:33;;;;;;;5.75;1.83;;;10.40;99.90;;;;;;5116434;28;20371;-60
2023/12/29 07:33:59;;;;;;;6.10;1.70;;;10.40;99.90;;;;;;5116420;28;20173;-59
2023/12/29 07:36:25;;;;;;;5.78;1.85;;;10.50;99.90;;;;;;5115080;28;20605;-59
2023/12/29 07:38:51;;;;;;;4.40;1.50;;;10.50;99.90;;;;;;5116273;28;20259;-60
2023/12/29 07:41:17;;;;;;;4.15;1.60;;;10.30;99.90;;;;;;5115118;28;20464;-61
2023/12/29 07:43:43;;;;;;;3.35;1.63;;;10.30;99.90;;;;;;5112942;28;20177;-61
2023/12/29 07:46:08;;;;;;;5.43;1.38;;;10.30;99.90;;;;;;5113673;28;20180;-61
2023/12/29 07:48:34;;;;;;;2.67;1.20;;;10.30;99.90;;;;;;5114821;28;20260;-58
2023/12/29 07:51:05;;;;;;;2.75;1.42;;;10.40;99.90;;;;;;5113468;28;20561;-62
2023/12/29 07:53:30;;;;;;;3.65;1.00;;;10.40;99.90;;;;;;5115240;28;20307;-59
2023/12/29 07:55:56;;;;;;;1.90;0.90;;;10.30;99.90;;;;;;5115177;28;20182;-58
2023/12/29 07:58:22;;;;;;;2.05;0.82;;;10.30;99.90;;;;;;5114984;28;20181;-58
2023/12/29 08:00:47;;;;;;;2.78;1.10;;;10.40;99.90;;;;;;5115411;28;20377;-58
2023/12/29 08:03:16;;;;;;;1.67;0.60;;;10.30;99.90;;;;;;5114472;28;20252;-58
2023/12/29 08:05:41;;;;;;;2.30;0.98;;;10.30;99.90;;;;;;5115800;28;20274;-60
2023/12/29 08:08:07;;;;;;;3.00;1.00;;;10.30;99.90;;;;;;5115133;28;20215;-60
2023/12/29 08:10:35;;;;;;;3.83;1.02;;;10.30;99.90;;;;;;5115258;28;20185;-59
2023/12/29 08:13:01;;;;;;;2.13;0.80;;;10.30;99.90;;;;;;5116073;28;20173;-60
2023/12/29 08:15:27;;;;;;;3.80;0.98;;;10.20;99.90;;;;;;5115811;28;20260;-60
2023/12/29 08:17:52;;;;;;;3.60;1.08;;;10.20;99.90;;;;;;5115790;28;20646;-59
2023/12/29 08:20:18;;;;;;;4.18;0.90;;;10.20;99.90;;;;;;5115228;28;20637;-60
2023/12/29 08:22:44;;;;;;;3.25;1.17;;;10.20;99.90;;;;;;5115456;28;20229;-60
2023/12/29 08:25:09;;;;;;;2.55;1.27;;;10.30;99.90;;;;;;5113969;28;20231;-59
2023/12/29 08:27:35;;;;;;;3.95;1.20;;;10.20;99.90;;;;;;5114123;28;20514;-60
2023/12/29 08:30:01;;;;;;;1.90;1.02;;;10.30;99.90;;;;;;5115245;28;20209;-61
2023/12/29 08:32:26;;;;;;;1.98;1.25;;;10.30;99.90;;;;;;5115047;28;20586;-61
2023/12/29 08:34:52;;;;;;;2.15;1.15;;;10.40;99.90;;;;;;5115313;28;20533;-60
2023/12/29 08:37:19;;;;;;;2.75;1.15;;;10.30;99.90;;;;;;5115207;28;20564;-60
2023/12/29 08:39:47;;;;;;;2.40;1.27;;;10.30;99.90;;;;;;5115105;28;20177;-60
2023/12/29 08:42:13;;;;;;;4.30;1.17;;;10.30;99.90;;;;;;5115283;28;20201;-60
2023/12/29 08:44:38;;;;;;;3.58;1.05;;;10.20;99.90;;;;;;5114594;28;20688;-60
2023/12/29 08:47:07;;;;;;;1.23;1.05;;;10.30;99.90;;;;;;5113804;28;20267;-59
2023/12/29 08:49:37;;;;;;;1.17;0.60;;;10.30;99.90;;;;;;5114716;28;20184;-59
2023/12/29 08:52:03;;;;;;;0.77;0.70;;;10.20;99.90;;;;;;5115116;28;20673;-59
2023/12/29 08:54:28;;;;;;;1.95;0.60;;;10.10;99.90;;;;;;5115124;28;20370;-59
2023/12/29 08:56:54;;;;;;;1.67;0.80;;;10.00;99.90;;;;;;5115076;28;20180;-59
2023/12/29 08:59:19;;;;;;;2.40;0.77;;;10.00;99.90;;;;;;5114951;28;20173;-59
2023/12/29 09:01:45;;;;;;;1.75;0.90;;;10.10;99.90;;;;;;5114632;28;20169;-59
2023/12/29 09:04:11;;;;;;;2.10;0.80;;;10.30;99.90;;;;;;5114621;28;20196;-59
2023/12/29 09:06:37;;;;;;;2.22;0.88;;;10.30;99.90;;;;;;5113766;28;20499;-60
2023/12/29 09:09:02;;;;;;;2.15;0.95;;;10.30;99.90;;;;;;5113622;28;20541;-59
2023/12/29 09:11:28;;;;;;;4.43;1.33;;;10.50;99.90;;;;;;5114824;28;20219;-59
2023/12/29 09:13:53;;;;;;;4.05;1.38;;;10.50;99.90;;;;;;5114504;28;20201;-60
2023/12/29 09:16:19;;;;;;;4.80;1.55;;;10.40;99.90;;;;;;5113446;28;20181;-59
2023/12/29 09:18:45;;;;;;;6.05;1.90;;;10.50;99.90;;;;;;5114496;28;20181;-59
2023/12/29 09:21:11;;;;;;;3.47;1.50;;;10.60;99.90;;;;;;5113849;28;20183;-59
2023/12/29 09:23:38;;;;;;;5.13;1.98;;;10.50;99.90;;;;;;5114125;28;20243;-58
2023/12/29 09:26:04;;;;;;;5.82;1.70;;;10.50;99.90;;;;;;5114354;28;20210;-59
2023/12/29 09:28:34;;;;;;;7.95;1.90;;;10.60;99.90;;;;;;5114387;28;20618;-59
2023/12/29 09:31:00;;;;;;;4.40;1.55;;;10.60;99.90;;;;;;5114310;28;20219;-58
2023/12/29 09:33:26;;;;;;;4.93;1.70;;;10.70;99.90;;;;;;5114301;28;20177;-59
2023/12/29 09:35:51;;;;;;;6.15;1.80;;;10.70;99.90;;;;;;5114262;28;20187;-59
2023/12/29 09:38:18;;;;;;;4.22;1.65;;;10.70;99.90;;;;;;5114188;28;20540;-59
2023/12/29 09:40:45;;;;;;;4.95;1.48;;;10.80;99.90;;;;;;5114203;28;20222;-58
2023/12/29 09:43:12;;;;;;;4.32;1.63;;;10.80;99.90;;;;;;5114137;28;20184;-59
2023/12/29 09:45:38;;;;;;;6.00;1.60;;;10.90;99.90;;;;;;5114044;28;20197;-59
2023/12/29 09:48:07;;;;;;;3.20;1.40;;;10.80;99.90;;;;;;5113939;28;20589;-59
2023/12/29 09:50:35;;;;;;;2.95;1.13;;;10.90;99.90;;;;;;5113918;28;20213;-59
2023/12/29 09:53:02;;;;;;;3.58;1.30;;;10.80;99.90;;;;;;5113903;28;20183;-59
2023/12/29 09:55:28;;;;;;;2.50;1.40;;;10.80;99.90;;;;;;5113968;28;20582;-59
2023/12/29 09:57:55;;;;;;;3.15;1.10;;;10.80;99.90;;;;;;5113483;28;20200;-59
2023/12/29 10:00:21;;;;;;;4.22;1.10;;;10.80;99.90;;;;;;5113833;28;20173;-59
2023/12/29 10:02:50;;;;;;;2.30;1.00;;;10.70;99.90;;;;;;5112467;28;20181;-59
2023/12/29 10:05:16;;;;;;;2.00;0.90;;;10.80;99.90;;;;;;5113339;28;20197;-59
2023/12/29 10:07:45;;;;;;;3.35;1.10;;;10.80;99.90;;;;;;5113635;28;20185;-59
2023/12/29 10:10:18;;;;;;;3.80;1.17;;;10.80;99.90;;;;;;5113633;28;20165;-59
2023/12/29 10:12:47;;;;;;;3.35;1.10;;;10.90;99.90;;;;;;5113632;28;20165;-59
2023/12/29 10:15:18;;;;;;;4.18;1.40;;;10.90;99.90;;;;;;5113575;28;20697;-59
2023/12/29 10:18:10;;;;;;;2.45;1.00;;;11.00;99.90;;;;;;5113446;28;20157;-59
2023/12/29 10:20:52;;;;;;;2.30;0.90;;;11.00;99.90;;;;;;5113338;28;20606;-59
2023/12/29 10:23:23;;;;;;;0.93;0.70;;;11.20;99.90;;;;;;5113477;28;20601;-59
2023/12/29 10:25:52;;;;;;;1.60;0.70;;;11.20;99.90;;;;;;5113285;28;20208;-59
2023/12/29 10:28:18;;;;;;;1.65;0.60;;;11.10;99.90;;;;;;5113102;28;20601;-59
2023/12/29 10:30:44;;;;;;;1.42;0.70;;;11.10;99.90;;;;;;5113399;28;20173;-59
2023/12/29 10:33:10;;;;;;;1.92;0.80;;;11.00;99.90;;;;;;5112230;28;20699;-59
2023/12/29 10:35:39;;;;;;;1.35;0.80;;;11.00;99.90;;;;;;5112784;28;20188;-59
2023/12/29 10:38:12;;;;;;;2.17;1.00;;;10.90;99.90;;;;;;5113446;28;20180;-59
2023/12/29 10:40:37;;;;;;;4.10;1.20;;;11.00;99.90;;;;;;5113147;28;20181;-60
2023/12/29 10:43:09;;;;;;;4.65;1.45;;;11.10;99.90;;;;;;5111865;28;20181;-60
2023/12/29 10:45:36;;;;;;;3.35;1.58;;;11.10;99.90;;;;;;5112907;28;20666;-59
2023/12/29 10:48:02;;;;;;;3.17;1.52;;;11.20;99.90;;;;;;5113079;28;20188;-60
2023/12/29 10:50:28;;;;;;;4.22;1.90;;;11.10;99.90;;;;;;5112987;28;20237;-58
2023/12/29 10:53:13;;;;;;;4.40;2.17;;;11.20;99.90;;;;;;5111761;28;20326;-58
2023/12/29 10:55:39;;;;;;;6.13;2.08;;;11.30;99.90;;;;;;5113331;28;20196;-59
2023/12/29 10:58:06;;;;;;;5.75;2.00;;;11.40;99.90;;;;;;5111652;28;20606;-58
2023/12/29 11:00:34;;;;;;;5.88;2.30;;;11.30;99.90;;;;;;5112745;28;20621;-59
2023/12/29 11:03:01;;;;;;;6.03;1.92;;;11.40;99.90;;;;;;5112709;28;20173;-59
2023/12/29 11:05:27;;;;;;;7.68;2.00;;;11.30;99.90;;;;;;5112855;28;20549;-59
2023/12/29 11:07:54;;;;;;;7.45;2.40;;;11.30;99.90;;;;;;5112948;28;20205;-58
2023/12/29 11:10:21;;;;;;;8.32;2.83;;;11.30;99.90;;;;;;5112927;28;20161;-59
2023/12/29 11:12:48;;;;;;;8.10;2.22;;;11.30;99.90;;;;;;5112892;28;20173;-59
2023/12/29 11:15:15;;;;;;;6.80;2.13;;;11.40;99.90;;;;;;5112910;28;20184;-58
2023/12/29 11:17:49;;;;;;;5.57;2.08;;;11.30;99.90;;;;;;5112818;28;20507;-59
2023/12/29 11:20:16;;;;;;;6.82;2.10;;;11.30;99.90;;;;;;5112883;28;20203;-59
2023/12/29 11:22:43;;;;;;;7.10;2.15;;;11.40;99.90;;;;;;5112835;28;20232;-58
2023/12/29 11:25:09;;;;;;;6.40;2.42;;;11.40;99.90;;;;;;5112669;28;20204;-59
2023/12/29 11:27:35;;;;;;;5.88;2.10;;;11.40;99.90;;;;;;5112628;28;20177;-59
2023/12/29 11:30:02;;;;;;;7.68;2.40;;;11.60;99.90;;;;;;5112738;28;20597;-59
2023/12/29 11:32:48;;;;;;;8.52;2.67;;;11.60;99.90;;;;;;5112318;28;20193;-59
2023/12/29 11:35:20;;;;;;;5.50;2.03;;;11.60;99.90;;;;;;5112672;28;20162;-59
2023/12/29 11:38:20;;;;;;;8.57;2.53;;;11.60;99.90;;;;;;5112373;28;20153;-59
2023/12/29 11:41:28;;;;;;;5.85;2.10;;;11.50;99.90;;;;;;5112853;28;20169;-58
2023/12/29 11:43:58;;;;;;;7.60;2.65;;;11.60;99.90;;;;;;5103343;28;20187;-59
2023/12/29 11:46:43;;;;;;;8.07;2.53;;;11.50;99.90;;;;;;5116390;28;20165;-59
2023/12/29 11:49:09;;;;;;;7.43;2.60;;;11.70;99.90;;;;;;5116393;28;20157;-58
2023/12/29 11:51:44;;;;;;;6.75;2.25;;;11.70;99.90;;;;;;5116484;28;20256;-58
2023/12/29 11:54:20;;;;;;;5.50;2.10;;;11.70;99.90;;;;;;5116237;28;20169;-58
2023/12/29 11:56:46;;;;;;;5.75;1.83;;;11.70;99.90;;;;;;5116223;28;20161;-59
2023/12/29 11:59:23;;;;;;;5.43;1.98;;;11.70;99.90;;;;;;5116182;28;20173;-59
2023/12/29 12:01:54;;;;;;;5.78;1.80;;;11.70;99.90;;;;;;5114268;28;20192;-58
2023/12/29 12:04:42;;;;;;;3.83;1.90;;;11.60;99.90;;;;;;5115695;28;20745;-59
2023/12/29 12:07:37;;;;;;;7.03;1.80;;;11.60;99.90;;;;;;5115914;28;20310;-59
2023/12/29 12:10:25;;;;;;;4.35;1.80;;;11.60;99.90;;;;;;5115616;28;20496;-58
2023/12/29 12:12:56;;;;;;;7.32;1.90;;;11.60;99.90;;;;;;5115831;28;20177;-58
2023/12/29 12:15:30;;;;;;;5.50;2.10;;;11.50;99.90;;;;;;5115439;28;20169;-59
2023/12/29 12:18:07;;;;;;;4.13;1.73;;;11.60;99.90;;;;;;5115528;28;20195;-59
2023/12/29 12:20:34;;;;;;;4.75;1.40;;;11.60;99.90;;;;;;5114538;28;20161;-59
2023/12/29 12:23:05;;;;;;;4.63;1.60;;;11.60;99.90;;;;;;5114678;28;20247;-58
2023/12/29 12:25:36;;;;;;;4.53;1.80;;;11.80;99.90;;;;;;5115490;28;20196;-59
2023/12/29 12:28:06;;;;;;;3.45;1.40;;;11.80;99.90;;;;;;5115604;28;20217;-58
2023/12/29 12:30:34;;;;;;;2.72;1.50;;;11.90;99.90;;;;;;5115458;28;20177;-59
2023/12/29 12:33:01;;;;;;;3.38;1.50;;;11.90;99.90;;;;;;5115133;28;20642;-59
2023/12/29 12:35:27;;;;;;;3.90;1.60;;;11.80;99.90;;;;;;5115723;28;20292;-58
2023/12/29 12:38:09;;;;;;;4.53;1.35;;;11.90;99.90;;;;;;5115308;28;20179;-59
2023/12/29 12:40:35;;;;;;;3.38;1.20;;;11.90;99.90;;;;;;5115304;28;20180;-59
2023/12/29 12:43:01;;;;;;;1.80;0.93;;;11.80;99.90;;;;;;5115269;28;20166;-59
2023/12/29 12:45:28;;;;;;;3.03;1.30;;;11.90;99.90;;;;;;5115409;28;20288;-59